Time;durP1;ratioP1;P1;durP2;ratioP2;P2;SDS_P1;SDS_P2;PMS_P1;PMS_P2;Temp;Humidity;BMP_temperature;BMP_pressure;BME280_temperature;BME280_humidity;BME280_pressure;Samples;Min_cycle;Max_cycle;Signal;HPM_P1;HPM_P2
2024/01/31 00:01:17;;;;;;;20.23;12.07;;;9.30;1.00;;;;;;5031606;28;20180;-74
2024/01/31 00:03:43;;;;;;;16.07;10.30;;;9.30;1.00;;;;;;5031165;28;20530;-74
2024/01/31 00:06:11;;;;;;;16.90;10.83;;;9.40;1.00;;;;;;5013540;28;20951;-74
2024/01/31 00:08:36;;;;;;;21.13;11.87;;;9.30;1.00;;;;;;5031361;28;20465;-74
2024/01/31 00:11:02;;;;;;;17.87;10.93;;;9.30;1.00;;;;;;5013259;28;20429;-74
2024/01/31 00:13:27;;;;;;;16.23;10.80;;;9.30;1.00;;;;;;5031327;28;20206;-74
2024/01/31 00:15:53;;;;;;;24.17;12.10;;;9.20;1.00;;;;;;5013293;28;20671;-74
2024/01/31 00:18:18;;;;;;;18.47;11.90;;;9.40;1.00;;;;;;5013081;28;20197;-75
2024/01/31 00:20:44;;;;;;;21.23;11.00;;;9.30;1.00;;;;;;5013067;28;20903;-75
2024/01/31 00:23:09;;;;;;;19.07;10.60;;;9.30;1.00;;;;;;5030817;28;20552;-74
2024/01/31 00:25:35;;;;;;;15.90;10.23;;;9.40;1.00;;;;;;5013409;28;20194;-74
2024/01/31 00:28:00;;;;;;;19.30;11.27;;;9.30;1.00;;;;;;5013317;28;20262;-75
2024/01/31 00:30:26;;;;;;;17.50;11.23;;;9.30;1.00;;;;;;5031426;28;20189;-75
2024/01/31 00:32:51;;;;;;;18.50;11.67;;;9.30;1.00;;;;;;5030330;28;20205;-74
2024/01/31 00:35:17;;;;;;;18.03;11.20;;;9.30;1.00;;;;;;5013079;28;20178;-74
2024/01/31 00:37:42;;;;;;;17.70;11.20;;;9.20;1.00;;;;;;5030709;28;20234;-73
2024/01/31 00:40:09;;;;;;;17.73;10.83;;;9.20;1.00;;;;;;5030730;28;20201;-74
2024/01/31 00:42:38;;;;;;;18.70;11.10;;;9.20;1.00;;;;;;5030576;28;20273;-74
2024/01/31 00:45:05;;;;;;;17.87;10.97;;;9.20;1.00;;;;;;5029681;28;20741;-73
2024/01/31 00:47:31;;;;;;;19.00;9.83;;;9.20;1.00;;;;;;5012311;28;20551;-74
2024/01/31 00:49:56;;;;;;;16.60;10.83;;;9.20;1.00;;;;;;5030312;28;20540;-74
2024/01/31 00:52:21;;;;;;;16.40;10.47;;;9.20;1.00;;;;;;5012430;28;20556;-74
2024/01/31 00:54:48;;;;;;;18.13;11.07;;;9.20;1.00;;;;;;5029986;28;20232;-73
2024/01/31 00:57:13;;;;;;;18.30;10.90;;;9.20;1.00;;;;;;5012689;28;20269;-73
2024/01/31 00:59:40;;;;;;;24.00;11.87;;;9.20;1.00;;;;;;5030586;28;20941;-74
2024/01/31 01:02:06;;;;;;;16.83;11.40;;;9.20;1.00;;;;;;5029260;28;20184;-74
2024/01/31 01:04:33;;;;;;;16.50;11.10;;;9.30;1.00;;;;;;5030851;28;20531;-73
2024/01/31 01:06:59;;;;;;;18.87;10.83;;;9.30;1.00;;;;;;5000632;28;20200;-73
2024/01/31 01:09:30;;;;;;;16.87;11.20;;;9.30;1.00;;;;;;5011234;28;20445;-74
2024/01/31 01:11:55;;;;;;;20.30;12.00;;;9.30;1.00;;;;;;5028324;28;20251;-74
2024/01/31 01:14:21;;;;;;;16.80;11.10;;;9.20;1.00;;;;;;5012100;28;20465;-73
2024/01/31 01:16:46;;;;;;;16.83;10.70;;;9.10;1.00;;;;;;5012179;28;20585;-73
2024/01/31 01:19:12;;;;;;;21.13;10.93;;;9.20;1.00;;;;;;5029954;28;20291;-75
2024/01/31 01:21:37;;;;;;;19.83;11.60;;;9.20;1.00;;;;;;5012392;28;20189;-74
2024/01/31 01:24:03;;;;;;;22.40;11.70;;;9.10;1.00;;;;;;5029672;28;20220;-74
2024/01/31 01:26:29;;;;;;;16.20;10.87;;;9.20;1.00;;;;;;5030020;28;20193;-75
2024/01/31 01:28:54;;;;;;;22.57;10.73;;;9.20;1.00;;;;;;5029500;28;20322;-74
2024/01/31 01:31:20;;;;;;;17.77;10.60;;;9.30;1.00;;;;;;5011969;28;20192;-75
2024/01/31 01:33:46;;;;;;;16.77;10.50;;;9.20;1.00;;;;;;5011651;28;20213;-75
2024/01/31 01:36:12;;;;;;;18.27;11.77;;;9.20;1.00;;;;;;5028493;28;20862;-74
2024/01/31 01:38:37;;;;;;;19.27;11.60;;;9.20;1.00;;;;;;5029585;28;20210;-74
2024/01/31 01:41:04;;;;;;;20.60;10.50;;;9.20;1.00;;;;;;5029053;28;20268;-74
2024/01/31 01:43:29;;;;;;;16.87;11.77;;;9.30;1.00;;;;;;5025481;28;20652;-74
2024/01/31 01:46:21;;;;;;;24.03;11.60;;;9.30;1.00;;;;;;5050189;23;20434;-76
2024/01/31 01:48:47;;;;;;;17.70;10.97;;;9.30;1.00;;;;;;5018846;28;20692;-76
2024/01/31 01:51:21;;;;;;;21.53;13.30;;;9.30;1.00;;;;;;5023854;28;20424;-76
2024/01/31 01:53:47;;;;;;;27.00;12.23;;;9.30;1.00;;;;;;5029336;28;20206;-78
2024/01/31 01:56:18;;;;;;;20.37;11.90;;;9.40;1.00;;;;;;5027600;28;20479;-77
2024/01/31 01:58:44;;;;;;;19.30;11.97;;;9.40;1.00;;;;;;5026755;28;20803;-76
2024/01/31 02:01:11;;;;;;;20.17;12.70;;;9.30;1.00;;;;;;5025520;28;20424;-76
2024/01/31 02:03:37;;;;;;;22.50;13.53;;;9.40;1.00;;;;;;5024097;28;20433;-77
2024/01/31 02:06:03;;;;;;;21.30;12.20;;;9.40;1.00;;;;;;5027849;28;20510;-75
2024/01/31 02:08:29;;;;;;;19.53;12.47;;;9.40;1.00;;;;;;5024336;28;20185;-75
2024/01/31 02:10:56;;;;;;;17.57;12.07;;;9.40;1.00;;;;;;5023935;28;20864;-76
2024/01/31 02:13:22;;;;;;;20.73;12.77;;;9.40;1.00;;;;;;5026908;28;20827;-76
2024/01/31 02:15:51;;;;;;;20.10;11.90;;;9.40;1.00;;;;;;5028816;28;20424;-75
2024/01/31 02:18:17;;;;;;;18.73;11.77;;;9.40;1.00;;;;;;5020890;28;20527;-74
2024/01/31 02:20:43;;;;;;;24.53;12.93;;;9.40;1.00;;;;;;5028773;28;21052;-76
2024/01/31 02:23:09;;;;;;;22.17;12.13;;;9.30;1.00;;;;;;5042107;28;20277;-76
2024/01/31 02:25:35;;;;;;;17.33;11.90;;;9.30;1.00;;;;;;5029021;28;20200;-76
2024/01/31 02:28:00;;;;;;;25.60;11.90;;;9.30;1.00;;;;;;5028021;28;20467;-77
2024/01/31 02:30:26;;;;;;;16.53;12.07;;;9.20;1.00;;;;;;5027610;28;20189;-77
2024/01/31 02:32:54;;;;;;;16.63;11.40;;;9.30;1.00;;;;;;5028576;28;20205;-76
2024/01/31 02:35:19;;;;;;;23.37;12.57;;;9.30;1.00;;;;;;5021351;28;20277;-76
2024/01/31 02:37:45;;;;;;;17.20;11.73;;;9.20;1.00;;;;;;5027289;28;20523;-76
2024/01/31 02:40:11;;;;;;;17.80;12.67;;;9.20;1.00;;;;;;5027009;28;20955;-76
2024/01/31 02:42:36;;;;;;;20.93;11.90;;;9.30;1.00;;;;;;5028612;28;20188;-76
2024/01/31 02:45:02;;;;;;;19.30;10.83;;;9.30;1.00;;;;;;5026413;28;20609;-76
2024/01/31 02:47:27;;;;;;;19.57;11.63;;;9.30;1.00;;;;;;5027583;28;20213;-76
2024/01/31 02:49:53;;;;;;;19.90;11.47;;;9.30;1.00;;;;;;5028628;28;20189;-75
2024/01/31 02:52:18;;;;;;;20.00;10.60;;;9.30;1.00;;;;;;5028409;28;20197;-76
2024/01/31 02:54:44;;;;;;;19.23;12.60;;;9.20;1.00;;;;;;5027146;28;20178;-76
2024/01/31 02:57:09;;;;;;;18.10;12.20;;;9.20;1.00;;;;;;5028216;28;20201;-76
2024/01/31 02:59:35;;;;;;;16.47;10.63;;;9.20;1.00;;;;;;5028672;28;20182;-74
2024/01/31 03:02:01;;;;;;;19.70;12.50;;;9.20;1.00;;;;;;5026865;28;20190;-75
2024/01/31 03:04:26;;;;;;;17.67;11.37;;;9.20;1.00;;;;;;5028587;28;20185;-75
2024/01/31 03:06:52;;;;;;;22.47;12.40;;;9.20;1.00;;;;;;5028408;28;20444;-76
2024/01/31 03:09:18;;;;;;;23.60;10.83;;;9.20;1.00;;;;;;5027615;28;20193;-75
2024/01/31 03:11:43;;;;;;;17.53;11.33;;;9.30;1.00;;;;;;5028089;28;20225;-75
2024/01/31 03:14:09;;;;;;;22.50;12.97;;;9.30;1.00;;;;;;5023215;28;20328;-75
2024/01/31 03:16:39;;;;;;;16.57;11.10;;;9.30;1.00;;;;;;5024224;28;20225;-75
2024/01/31 03:19:05;;;;;;;17.87;11.40;;;9.30;1.00;;;;;;5025657;28;20667;-76
2024/01/31 03:21:30;;;;;;;19.50;12.00;;;9.40;1.00;;;;;;5026995;28;20421;-78
2024/01/31 03:23:56;;;;;;;19.57;11.60;;;9.40;1.00;;;;;;5027077;28;20428;-75
2024/01/31 03:26:21;;;;;;;19.13;11.40;;;9.30;1.00;;;;;;5030689;28;20255;-74
2024/01/31 03:28:47;;;;;;;18.70;11.20;;;9.20;1.00;;;;;;5031589;28;20348;-76
2024/01/31 03:31:12;;;;;;;19.40;11.83;;;9.30;1.00;;;;;;5030777;28;20555;-75
2024/01/31 03:33:38;;;;;;;19.47;12.30;;;9.20;1.00;;;;;;5027672;28;20672;-75
2024/01/31 03:36:04;;;;;;;21.27;11.60;;;9.20;1.00;;;;;;5030028;28;20229;-75
2024/01/31 03:38:29;;;;;;;17.67;11.10;;;9.30;1.00;;;;;;5031246;28;20185;-77
2024/01/31 03:40:55;;;;;;;18.90;10.80;;;9.10;1.00;;;;;;5031527;28;20192;-75
2024/01/31 03:43:20;;;;;;;17.43;11.87;;;9.30;1.00;;;;;;5031306;28;20186;-75
2024/01/31 03:45:46;;;;;;;24.20;12.17;;;9.30;1.00;;;;;;5029925;28;20182;-75
2024/01/31 03:48:12;;;;;;;19.07;12.10;;;9.30;1.00;;;;;;5030068;28;20240;-77
2024/01/31 03:50:37;;;;;;;18.40;12.20;;;9.30;1.00;;;;;;5032044;28;20722;-75
2024/01/31 03:53:03;;;;;;;18.00;12.00;;;9.20;1.00;;;;;;5030907;28;20264;-75
2024/01/31 03:55:28;;;;;;;19.90;11.90;;;9.30;1.00;;;;;;5032004;28;20228;-77
2024/01/31 03:57:54;;;;;;;18.33;12.77;;;9.30;1.00;;;;;;5031487;28;20220;-77
2024/01/31 04:00:19;;;;;;;20.93;12.57;;;9.30;1.00;;;;;;5030157;28;20198;-76
2024/01/31 04:02:45;;;;;;;19.80;11.40;;;9.20;1.00;;;;;;5031562;28;20214;-76
2024/01/31 04:05:10;;;;;;;19.23;12.57;;;9.20;1.00;;;;;;5031638;28;20579;-76
2024/01/31 04:07:36;;;;;;;18.30;11.27;;;9.20;1.00;;;;;;5031604;28;20201;-73
2024/01/31 04:10:03;;;;;;;18.00;11.43;;;9.20;1.00;;;;;;5031096;28;20189;-73
2024/01/31 04:12:29;;;;;;;22.80;13.20;;;9.10;1.00;;;;;;5031016;28;20530;-76
2024/01/31 04:14:54;;;;;;;24.77;13.90;;;9.10;1.00;;;;;;5031794;28;20428;-76
2024/01/31 04:17:21;;;;;;;22.33;14.00;;;9.10;1.00;;;;;;5031277;28;20217;-77
2024/01/31 04:19:48;;;;;;;22.30;12.60;;;9.00;1.00;;;;;;5031324;28;20235;-76
2024/01/31 04:22:15;;;;;;;23.00;13.33;;;9.00;1.00;;;;;;5029305;28;20412;-76
2024/01/31 04:24:43;;;;;;;19.27;12.50;;;8.90;1.00;;;;;;5031082;28;20464;-76
2024/01/31 04:27:09;;;;;;;21.60;14.07;;;9.00;1.00;;;;;;5029907;28;20441;-76
2024/01/31 04:29:38;;;;;;;19.73;11.93;;;9.00;1.00;;;;;;5031067;28;20463;-76
2024/01/31 04:32:04;;;;;;;22.50;14.00;;;9.00;1.00;;;;;;5030686;28;20421;-72
2024/01/31 04:34:29;;;;;;;25.00;14.67;;;8.90;1.00;;;;;;5023943;28;20467;-76
2024/01/31 04:36:55;;;;;;;27.50;14.10;;;8.90;1.00;;;;;;5025990;28;20542;-76
2024/01/31 04:39:20;;;;;;;22.50;13.97;;;8.90;1.00;;;;;;5030399;28;20190;-76
2024/01/31 04:41:47;;;;;;;21.60;13.10;;;8.90;1.00;;;;;;5030644;28;20178;-77
2024/01/31 04:44:12;;;;;;;21.33;13.93;;;8.70;1.00;;;;;;5030303;28;20390;-76
2024/01/31 04:46:38;;;;;;;24.70;13.87;;;8.60;1.00;;;;;;5030868;28;20610;-76
2024/01/31 04:49:03;;;;;;;24.83;14.13;;;8.50;1.00;;;;;;5030096;28;20251;-76
2024/01/31 04:51:29;;;;;;;26.57;14.67;;;8.70;1.00;;;;;;5029828;28;20248;-76
2024/01/31 04:53:54;;;;;;;21.93;13.63;;;8.70;1.00;;;;;;5030154;28;20220;-76
2024/01/31 04:56:20;;;;;;;29.60;14.70;;;8.70;1.00;;;;;;5030227;28;20206;-76
2024/01/31 04:58:45;;;;;;;28.33;15.77;;;8.70;1.00;;;;;;5029126;28;20182;-76
2024/01/31 05:01:11;;;;;;;24.20;14.43;;;8.70;1.00;;;;;;5029959;28;20714;-76
2024/01/31 05:03:36;;;;;;;31.97;15.23;;;8.70;1.00;;;;;;5030150;28;20194;-77
2024/01/31 05:06:03;;;;;;;27.43;15.37;;;8.70;1.00;;;;;;5029790;28;20213;-77
2024/01/31 05:08:28;;;;;;;29.97;16.13;;;8.60;1.00;;;;;;5028638;28;20192;-76
2024/01/31 05:10:54;;;;;;;26.97;15.17;;;8.60;1.00;;;;;;5029946;28;20523;-76
2024/01/31 05:13:20;;;;;;;28.70;15.77;;;8.60;1.00;;;;;;5029829;28;20458;-76
2024/01/31 05:15:45;;;;;;;29.80;15.47;;;8.70;1.00;;;;;;5029935;28;20838;-76
2024/01/31 05:18:11;;;;;;;29.53;15.20;;;8.70;1.00;;;;;;5029651;28;20185;-76
2024/01/31 05:20:37;;;;;;;31.10;16.80;;;8.70;1.00;;;;;;5030003;28;20193;-76
2024/01/31 05:23:03;;;;;;;32.47;16.60;;;8.70;1.00;;;;;;5029911;28;20298;-76
2024/01/31 05:25:29;;;;;;;30.40;16.53;;;8.70;1.00;;;;;;5028284;28;20275;-76
2024/01/31 05:27:54;;;;;;;26.97;16.10;;;8.70;1.00;;;;;;5029805;28;20584;-76
2024/01/31 05:30:20;;;;;;;28.30;16.87;;;8.70;1.00;;;;;;5029891;28;20181;-76
2024/01/31 05:32:46;;;;;;;32.00;16.50;;;8.60;1.00;;;;;;5029677;28;20209;-76
2024/01/31 05:35:13;;;;;;;28.50;16.37;;;8.70;1.00;;;;;;5029228;28;20192;-76
2024/01/31 05:37:38;;;;;;;29.83;15.23;;;8.60;1.00;;;;;;5028862;28;20248;-76
2024/01/31 05:40:04;;;;;;;28.50;15.93;;;8.60;1.00;;;;;;5029679;28;20425;-76
2024/01/31 05:42:30;;;;;;;30.80;16.70;;;8.60;1.00;;;;;;5025568;28;20604;-76
2024/01/31 05:44:56;;;;;;;31.57;16.43;;;8.60;1.00;;;;;;5029171;28;20181;-78
2024/01/31 05:47:22;;;;;;;29.23;16.47;;;8.50;1.00;;;;;;5021760;28;20698;-75
2024/01/31 05:49:48;;;;;;;32.40;16.40;;;8.50;1.00;;;;;;5023822;28;20433;-77
2024/01/31 05:52:13;;;;;;;26.70;15.80;;;8.50;1.00;;;;;;5021348;28;20781;-75
2024/01/31 05:54:39;;;;;;;28.43;15.97;;;8.60;1.00;;;;;;5027363;28;20297;-76
2024/01/31 05:57:06;;;;;;;28.30;15.20;;;8.60;1.00;;;;;;5022119;28;20202;-76
2024/01/31 05:59:32;;;;;;;31.57;15.80;;;8.60;1.00;;;;;;5027402;28;20190;-75
2024/01/31 06:01:58;;;;;;;27.13;15.90;;;8.50;1.00;;;;;;5028855;28;20478;-76
2024/01/31 06:04:23;;;;;;;28.43;15.20;;;8.50;1.00;;;;;;5027544;28;20548;-76
2024/01/31 06:06:49;;;;;;;28.50;16.20;;;8.50;1.00;;;;;;5024682;28;20499;-77
2024/01/31 06:09:15;;;;;;;25.10;14.53;;;8.50;1.00;;;;;;5027971;28;20208;-76
2024/01/31 06:11:40;;;;;;;30.50;16.60;;;8.40;1.00;;;;;;5026873;28;20182;-76
2024/01/31 06:14:06;;;;;;;28.17;16.00;;;8.30;1.00;;;;;;5028222;28;20213;-76
2024/01/31 06:16:32;;;;;;;36.63;17.50;;;8.20;1.00;;;;;;5025699;28;20205;-76
2024/01/31 06:18:59;;;;;;;32.53;16.43;;;8.20;1.00;;;;;;5026377;28;20656;-76
2024/01/31 06:21:25;;;;;;;29.60;16.23;;;8.30;1.00;;;;;;5021933;28;20515;-77
2024/01/31 06:23:51;;;;;;;30.27;15.47;;;8.30;1.00;;;;;;5025665;28;20511;-76
2024/01/31 06:26:16;;;;;;;25.40;15.33;;;8.30;1.00;;;;;;5027105;28;20225;-76
2024/01/31 06:28:42;;;;;;;34.70;16.50;;;8.30;1.00;;;;;;5027565;28;20519;-74
2024/01/31 06:31:23;;;;;;;38.33;16.60;;;8.20;1.00;;;;;;5027199;28;20684;-76
2024/01/31 06:33:49;;;;;;;29.47;17.27;;;8.10;1.00;;;;;;5020721;28;20206;-77
2024/01/31 06:36:15;;;;;;;36.57;17.20;;;8.10;1.00;;;;;;5025137;28;20436;-75
2024/01/31 06:38:40;;;;;;;34.97;18.27;;;5.80;1.00;;;;;;5024920;28;20189;-76
2024/01/31 06:41:06;;;;;;;39.50;18.20;;;8.10;1.00;;;;;;5024758;28;20185;-76
2024/01/31 06:43:31;;;;;;;32.90;17.47;;;8.20;1.00;;;;;;5029915;28;20582;-75
2024/01/31 06:45:57;;;;;;;37.40;16.97;;;8.20;1.00;;;;;;5022303;28;20194;-76
2024/01/31 06:48:23;;;;;;;29.90;15.93;;;8.20;1.00;;;;;;5022656;28;20579;-76
2024/01/31 06:50:49;;;;;;;34.13;17.53;;;8.20;1.00;;;;;;5025315;28;20612;-75
2024/01/31 06:53:15;;;;;;;42.67;19.80;;;8.00;1.00;;;;;;5027123;28;20550;-76
2024/01/31 06:55:40;;;;;;;38.60;19.40;;;7.90;1.00;;;;;;5027440;28;20178;-77
2024/01/31 06:58:06;;;;;;;36.37;18.63;;;7.90;1.00;;;;;;5028196;28;20205;-75
2024/01/31 07:00:32;;;;;;;30.40;15.60;;;8.00;1.00;;;;;;5028325;28;20671;-76
2024/01/31 07:02:57;;;;;;;33.43;15.20;;;8.00;1.00;;;;;;5022920;28;20252;-76
2024/01/31 07:05:23;;;;;;;28.07;16.00;;;8.10;1.00;;;;;;5023319;28;20182;-76
2024/01/31 07:07:50;;;;;;;26.63;15.90;;;8.10;1.00;;;;;;5024547;28;20425;-76
2024/01/31 07:10:15;;;;;;;29.03;15.60;;;8.10;1.00;;;;;;5033011;28;20270;-76
2024/01/31 07:12:41;;;;;;;27.97;15.90;;;8.10;1.00;;;;;;5032761;28;20856;-75
2024/01/31 07:15:07;;;;;;;30.30;16.50;;;8.10;1.00;;;;;;5027272;28;20182;-76
2024/01/31 07:17:33;;;;;;;34.23;16.60;;;8.20;1.00;;;;;;5026251;28;20284;-75
2024/01/31 07:19:58;;;;;;;30.67;16.57;;;8.20;1.00;;;;;;5027440;28;20507;-73
2024/01/31 07:22:24;;;;;;;26.73;15.43;;;8.10;1.00;;;;;;5025617;28;20190;-75
2024/01/31 07:24:49;;;;;;;33.70;16.37;;;8.10;1.00;;;;;;5031693;28;20181;-76
2024/01/31 07:27:15;;;;;;;28.00;15.63;;;8.10;1.00;;;;;;5033690;28;20201;-74
2024/01/31 07:29:44;;;;;;;32.67;17.00;;;8.20;1.00;;;;;;5032245;28;20273;-75
2024/01/31 07:32:10;;;;;;;33.57;16.70;;;8.20;1.00;;;;;;5032814;28;20216;-77
2024/01/31 07:34:35;;;;;;;28.10;15.80;;;8.30;1.00;;;;;;5032580;28;20467;-76
2024/01/31 07:37:01;;;;;;;31.57;16.13;;;8.40;1.00;;;;;;5033156;28;20663;-76
2024/01/31 07:39:27;;;;;;;33.17;17.03;;;8.30;1.00;;;;;;5029831;28;20182;-78
2024/01/31 07:41:53;;;;;;;30.20;16.40;;;8.30;1.00;;;;;;5029245;28;20177;-76
2024/01/31 07:44:18;;;;;;;32.60;17.60;;;8.30;1.00;;;;;;5028836;28;20420;-76
2024/01/31 07:46:44;;;;;;;32.40;17.50;;;8.50;1.00;;;;;;5031281;28;20832;-76
2024/01/31 07:49:10;;;;;;;34.20;16.57;;;8.40;1.00;;;;;;5030437;28;20232;-76
2024/01/31 07:51:42;;;;;;;29.27;16.90;;;8.40;1.00;;;;;;5031413;28;20260;-77
2024/01/31 07:54:07;;;;;;;29.97;15.17;;;8.50;1.00;;;;;;5015728;28;20210;-79
2024/01/31 07:56:33;;;;;;;35.03;17.20;;;8.50;1.00;;;;;;5022748;28;20785;-74
2024/01/31 07:58:58;;;;;;;32.17;17.77;;;8.50;1.00;;;;;;5030293;28;20750;-74
2024/01/31 08:01:24;;;;;;;34.97;18.17;;;8.60;1.00;;;;;;5026524;28;20186;-75
2024/01/31 08:03:49;;;;;;;38.40;20.37;;;8.60;1.00;;;;;;5027461;28;20192;-74
2024/01/31 08:06:14;;;;;;;32.93;19.23;;;8.80;1.00;;;;;;5030152;28;20225;-79
2024/01/31 08:08:42;;;;;;;30.70;18.37;;;8.80;1.00;;;;;;5030709;28;20196;-77
2024/01/31 08:11:07;;;;;;;40.50;18.97;;;8.80;1.00;;;;;;5028157;28;20244;-77
2024/01/31 08:13:34;;;;;;;37.27;21.83;;;9.00;1.00;;;;;;5024973;28;20479;-77
2024/01/31 08:15:59;;;;;;;36.20;20.03;;;9.10;1.00;;;;;;5029659;28;20571;-76
2024/01/31 08:18:25;;;;;;;38.20;18.70;;;9.10;1.00;;;;;;5025950;28;20414;-76
2024/01/31 08:20:50;;;;;;;34.93;18.80;;;9.10;1.00;;;;;;5026323;28;20189;-77
2024/01/31 08:23:16;;;;;;;41.00;21.10;;;9.10;1.00;;;;;;5031891;28;20189;-73
2024/01/31 08:25:41;;;;;;;35.10;18.40;;;9.40;1.00;;;;;;5031772;28;20324;-76
2024/01/31 08:28:07;;;;;;;33.20;17.67;;;9.40;1.00;;;;;;5028604;28;20209;-76
2024/01/31 08:30:32;;;;;;;30.27;17.87;;;9.50;1.00;;;;;;5024588;28;20191;-76
2024/01/31 08:32:59;;;;;;;30.60;16.90;;;9.50;1.00;;;;;;5031471;28;20294;-75
2024/01/31 08:35:25;;;;;;;27.43;15.87;;;9.50;1.00;;;;;;5025421;28;20283;-75
2024/01/31 08:37:50;;;;;;;27.90;16.03;;;9.60;1.00;;;;;;5030276;28;20960;-76
2024/01/31 08:40:16;;;;;;;27.73;16.10;;;9.70;1.00;;;;;;5027027;28;20257;-76
2024/01/31 08:42:41;;;;;;;26.03;14.80;;;9.80;1.00;;;;;;5030827;28;20193;-77
2024/01/31 08:45:08;;;;;;;29.90;15.60;;;9.90;1.00;;;;;;5029209;28;20483;-75
2024/01/31 08:47:33;;;;;;;30.17;15.23;;;9.90;1.00;;;;;;5019967;28;20707;-78
2024/01/31 08:49:59;;;;;;;25.40;14.90;;;10.00;1.00;;;;;;5030486;28;20425;-76
2024/01/31 08:52:24;;;;;;;26.20;14.83;;;10.00;1.00;;;;;;5031356;28;20182;-76
2024/01/31 08:54:50;;;;;;;24.77;14.73;;;10.20;1.00;;;;;;5029997;28;20221;-77
2024/01/31 08:57:16;;;;;;;20.30;13.37;;;10.40;1.00;;;;;;5030966;28;20209;-77
2024/01/31 08:59:42;;;;;;;28.90;15.20;;;10.40;1.00;;;;;;5030706;28;20178;-75
2024/01/31 09:02:07;;;;;;;22.90;14.10;;;10.50;1.00;;;;;;5027959;28;20182;-76
2024/01/31 09:04:33;;;;;;;24.07;13.33;;;10.60;1.00;;;;;;5029366;28;20272;-76
2024/01/31 09:06:59;;;;;;;23.50;14.10;;;10.60;1.00;;;;;;5027581;28;20225;-76
2024/01/31 09:09:24;;;;;;;22.97;13.90;;;10.60;1.00;;;;;;5030804;28;20472;-77
2024/01/31 09:11:51;;;;;;;23.73;13.57;;;10.60;1.00;;;;;;5027684;28;20198;-76
2024/01/31 09:14:16;;;;;;;22.60;13.80;;;10.60;1.00;;;;;;5028000;28;20198;-77
2024/01/31 09:16:42;;;;;;;23.53;12.47;;;10.70;1.00;;;;;;5020822;28;20977;-74
2024/01/31 09:19:09;;;;;;;21.57;12.87;;;10.70;1.00;;;;;;5028738;28;20648;-77
2024/01/31 09:21:35;;;;;;;21.03;12.70;;;10.90;1.00;;;;;;5029330;28;20177;-74
2024/01/31 09:24:00;;;;;;;21.00;12.80;;;11.10;1.00;;;;;;5028288;28;20516;-75
2024/01/31 09:26:26;;;;;;;23.37;13.47;;;11.30;1.00;;;;;;5030218;28;20484;-76
2024/01/31 09:28:52;;;;;;;19.23;11.70;;;11.30;1.00;;;;;;5030462;28;20186;-76
2024/01/31 09:31:25;;;;;;;24.10;12.37;;;11.30;1.00;;;;;;5029640;28;20252;-74
2024/01/31 09:33:52;;;;;;;19.90;12.37;;;11.30;1.00;;;;;;5024794;28;20249;-75
2024/01/31 09:36:18;;;;;;;17.93;11.40;;;11.20;1.00;;;;;;5028792;28;20437;-75
2024/01/31 09:38:44;;;;;;;23.50;12.80;;;11.30;1.00;;;;;;5028871;28;20427;-78
2024/01/31 09:41:10;;;;;;;24.37;12.07;;;11.80;1.00;;;;;;5029984;28;20209;-76
2024/01/31 09:43:36;;;;;;;18.40;11.80;;;12.20;1.00;;;;;;5028342;28;20432;-77
2024/01/31 09:46:05;;;;;;;15.63;10.60;;;;;;;;;;5026071;28;21004;-77
2024/01/31 09:48:31;;;;;;;16.90;9.97;;;12.40;1.00;;;;;;5022902;28;20278;-77
2024/01/31 09:50:59;;;;;;;13.03;8.70;;;12.80;1.00;;;;;;5030161;28;20484;-75
2024/01/31 09:53:25;;;;;;;20.10;11.07;;;12.90;1.00;;;;;;5033798;28;20460;-79
2024/01/31 09:55:55;;;;;;;19.77;11.03;;;12.60;1.00;;;;;;5023062;28;20428;-76
2024/01/31 09:58:20;;;;;;;14.57;8.60;;;12.60;1.00;;;;;;5029007;28;20722;-76
2024/01/31 10:00:46;;;;;;;14.40;7.83;;;12.50;1.00;;;;;;5029710;28;20443;-76
2024/01/31 10:03:11;;;;;;;13.20;7.30;;;12.50;1.00;;;;;;5023094;28;20436;-76
2024/01/31 10:05:37;;;;;;;11.60;8.03;;;12.60;1.00;;;;;;5029181;28;20247;-73
2024/01/31 10:08:04;;;;;;;14.03;8.30;;;13.00;1.00;;;;;;5019545;28;20209;-76
2024/01/31 10:10:30;;;;;;;13.50;7.63;;;13.50;1.00;;;;;;5026227;28;20189;-76
2024/01/31 10:12:55;;;;;;;10.80;7.60;;;14.40;1.00;;;;;;5027834;28;20487;-77
2024/01/31 10:15:21;;;;;;;15.83;9.27;;;;;;;;;;5017027;28;20244;-78
2024/01/31 10:17:47;;;;;;;16.80;9.53;;;14.50;1.00;;;;;;5023367;28;20247;-74
2024/01/31 10:20:15;;;;;;;10.77;7.13;;;14.40;1.00;;;;;;5028000;28;20857;-77
2024/01/31 10:22:43;;;;;;;11.47;6.50;;;14.30;1.00;;;;;;5018973;28;20371;-73
2024/01/31 10:25:10;;;;;;;10.30;6.53;;;14.20;1.00;;;;;;5025959;28;20427;-76
2024/01/31 10:27:36;;;;;;;10.30;6.27;;;14.10;1.00;;;;;;5019102;28;20935;-78
2024/01/31 10:30:07;;;;;;;11.03;6.23;;;14.00;1.00;;;;;;5027941;28;20420;-79
2024/01/31 10:32:34;;;;;;;10.80;7.73;;;13.90;1.00;;;;;;5027533;28;20260;-76
2024/01/31 10:35:02;;;;;;;10.57;6.80;;;13.90;1.00;;;;;;5028717;28;20419;-77
2024/01/31 10:37:29;;;;;;;10.10;5.87;;;13.90;1.00;;;;;;5030590;28;20803;-75
2024/01/31 10:39:55;;;;;;;8.80;6.10;;;14.90;1.00;;;;;;5032829;28;20978;-79
2024/01/31 10:42:21;;;;;;;12.53;7.30;;;17.70;1.00;;;;;;5030184;28;20419;-77
2024/01/31 10:44:48;;;;;;;12.27;8.37;;;18.40;1.00;;;;;;5031472;28;20436;-76
2024/01/31 10:47:13;;;;;;;11.80;8.30;;;16.60;1.00;;;;;;5026509;28;20462;-75
2024/01/31 10:49:39;;;;;;;11.93;8.63;;;15.80;1.00;;;;;;5029103;28;20428;-74
2024/01/31 10:52:09;;;;;;;16.10;8.70;;;15.00;1.00;;;;;;5033017;28;20182;-78
2024/01/31 10:54:39;;;;;;;11.43;7.33;;;14.40;1.00;;;;;;5033078;28;20240;-79
2024/01/31 10:57:05;;;;;;;14.80;8.00;;;13.60;1.00;;;;;;5032073;28;20534;-77
2024/01/31 10:59:36;;;;;;;12.30;7.77;;;13.50;1.00;;;;;;5033306;28;20482;-78
2024/01/31 11:02:01;;;;;;;14.37;7.60;;;13.40;1.00;;;;;;5030431;28;20447;-74
2024/01/31 11:04:27;;;;;;;10.30;7.27;;;13.30;1.00;;;;;;5029961;28;20938;-76
2024/01/31 11:06:53;;;;;;;11.03;7.13;;;13.60;1.00;;;;;;5031904;28;20233;-77
2024/01/31 11:09:23;;;;;;;10.70;7.10;;;13.70;1.00;;;;;;5028960;28;20592;-76
2024/01/31 11:12:08;;;;;;;9.87;6.47;;;13.70;1.00;;;;;;5032909;28;20652;-77
2024/01/31 11:14:33;;;;;;;10.40;6.50;;;13.40;1.00;;;;;;5027091;28;20559;-76
2024/01/31 11:17:09;;;;;;;11.20;6.90;;;13.20;1.00;;;;;;5031461;28;20539;-76
2024/01/31 11:19:47;;;;;;;9.20;5.80;;;13.10;1.00;;;;;;5032095;28;20181;-74
2024/01/31 11:22:13;;;;;;;9.97;6.40;;;13.00;1.00;;;;;;5030965;28;21033;-75
2024/01/31 11:24:49;;;;;;;10.80;6.17;;;12.70;1.00;;;;;;5032537;28;20506;-76
2024/01/31 11:27:16;;;;;;;9.03;5.60;;;12.70;1.00;;;;;;5025897;28;20228;-76
2024/01/31 11:29:49;;;;;;;10.33;5.60;;;12.60;1.00;;;;;;5030601;28;20855;-74
2024/01/31 11:32:15;;;;;;;9.83;5.57;;;12.50;1.00;;;;;;5032195;28;20856;-76
2024/01/31 11:34:42;;;;;;;10.47;5.93;;;12.30;1.00;;;;;;5032465;28;20542;-78
2024/01/31 11:37:08;;;;;;;10.47;5.70;;;12.40;1.00;;;;;;5032475;28;20455;-76
2024/01/31 11:39:33;;;;;;;11.90;5.07;;;12.40;1.00;;;;;;5027769;28;20420;-76
2024/01/31 11:41:59;;;;;;;8.93;4.83;;;12.50;1.00;;;;;;5027366;28;20833;-75
2024/01/31 11:44:25;;;;;;;7.80;4.70;;;12.50;1.00;;;;;;5032569;28;20236;-77
2024/01/31 11:46:51;;;;;;;6.30;4.70;;;12.50;1.00;;;;;;5032350;28;20210;-79
2024/01/31 11:49:17;;;;;;;5.50;4.10;;;12.60;1.00;;;;;;5029627;28;20189;-76
2024/01/31 11:51:43;;;;;;;6.23;4.03;;;12.60;1.00;;;;;;5032084;28;20423;-76
2024/01/31 11:54:09;;;;;;;9.33;4.60;;;12.40;1.00;;;;;;5032112;28;20276;-76
2024/01/31 11:56:35;;;;;;;6.00;3.90;;;12.20;1.00;;;;;;5032712;28;20275;-76
2024/01/31 11:59:01;;;;;;;7.00;3.90;;;12.20;1.00;;;;;;5032587;28;20424;-76
2024/01/31 12:01:27;;;;;;;7.67;4.40;;;12.10;1.00;;;;;;5032469;28;20425;-76
2024/01/31 12:03:53;;;;;;;7.50;5.23;;;11.90;1.00;;;;;;5032594;28;20614;-75
2024/01/31 12:06:19;;;;;;;9.33;4.90;;;11.70;1.00;;;;;;5032544;28;20535;-75
2024/01/31 12:08:49;;;;;;;9.03;4.57;;;11.70;1.00;;;;;;5032308;28;20264;-76
2024/01/31 12:11:18;;;;;;;7.63;4.37;;;11.80;1.00;;;;;;5024092;28;20907;-76
2024/01/31 12:13:44;;;;;;;10.00;4.97;;;11.90;1.00;;;;;;5032591;28;20460;-76
2024/01/31 12:16:10;;;;;;;5.73;4.43;;;12.30;1.00;;;;;;5032030;28;20436;-74
2024/01/31 12:18:35;;;;;;;6.83;4.47;;;12.30;1.00;;;;;;5023509;28;20428;-75
2024/01/31 12:21:05;;;;;;;10.50;4.90;;;12.40;1.00;;;;;;5031438;28;20436;-76
2024/01/31 12:23:31;;;;;;;10.00;4.53;;;12.40;1.00;;;;;;5032354;28;20193;-76
2024/01/31 12:25:57;;;;;;;10.90;6.03;;;12.40;1.00;;;;;;5031798;28;20429;-76
2024/01/31 12:28:23;;;;;;;6.37;4.87;;;12.40;1.00;;;;;;5031051;28;20686;-76
2024/01/31 12:30:48;;;;;;;5.57;4.33;;;12.50;1.00;;;;;;5032322;28;20425;-76
2024/01/31 12:33:14;;;;;;;7.10;4.40;;;12.60;1.00;;;;;;5031687;28;20651;-76
2024/01/31 12:35:40;;;;;;;7.20;4.70;;;;;;;;;;5032229;28;20280;-76
2024/01/31 12:38:05;;;;;;;8.57;4.63;;;12.70;1.00;;;;;;5031673;28;20189;-75
2024/01/31 12:40:31;;;;;;;6.70;4.47;;;12.70;1.00;;;;;;5032045;28;20243;-76
2024/01/31 12:42:57;;;;;;;7.30;4.73;;;12.70;1.00;;;;;;5031364;28;20244;-76